Time;durP1;ratioP1;P1;durP2;ratioP2;P2;SDS_P1;SDS_P2;PMS_P1;PMS_P2;Temp;Humidity;BMP_temperature;BMP_pressure;BME280_temperature;BME280_humidity;BME280_pressure;Samples;Min_cycle;Max_cycle;Signal;HPM_P1;HPM_P2
2023/01/01 00:00:23;;;;;;;15.50;5.38;;;;;;;15.83;55.36;100753.41;4994258;28;20450;-67
2023/01/01 00:02:49;;;;;;;15.80;4.55;;;;;;;15.85;54.40;100749.81;4994236;28;20026;-67
2023/01/01 00:05:14;;;;;;;11.75;3.80;;;;;;;15.89;54.44;100742.69;4994161;28;20030;-67
2023/01/01 00:07:39;;;;;;;16.83;4.55;;;;;;;15.90;54.53;100749.75;4994153;28;20041;-67
2023/01/01 00:12:49;;;;;;;16.52;3.90;;;;;;;15.92;53.64;100767.47;4994402;28;20169;-67
2023/01/01 00:15:14;;;;;;;14.40;4.28;;;;;;;15.97;53.07;100765.66;4994028;28;20488;-67
2023/01/01 00:17:40;;;;;;;14.43;3.50;;;;;;;15.95;53.32;100780.78;4994274;28;20526;-67
2023/01/01 00:20:06;;;;;;;14.07;3.63;;;;;;;15.97;52.99;100770.09;4994231;28;20383;-67
2023/01/01 00:22:32;;;;;;;10.23;3.45;;;;;;;15.92;53.16;100774.59;4993991;28;20043;-68
2023/01/01 00:24:57;;;;;;;10.80;3.60;;;;;;;15.88;53.94;100773.75;4994005;28;20034;-67
2023/01/01 00:27:23;;;;;;;18.10;4.00;;;;;;;15.89;53.08;100772.88;4994021;28;20404;-67
2023/01/01 00:29:48;;;;;;;15.32;3.90;;;;;;;15.91;52.64;100776.38;4994111;28;20066;-67
2023/01/01 00:32:13;;;;;;;16.08;3.80;;;;;;;15.87;52.46;100797.75;4993905;28;20027;-67
2023/01/01 00:34:39;;;;;;;10.52;3.63;;;;;;;15.86;52.25;100762.25;4993920;28;20038;-67
2023/01/01 00:37:04;;;;;;;13.73;3.85;;;;;;;15.92;52.71;100778.13;4993958;28;20180;-67
2023/01/01 00:39:29;;;;;;;13.63;3.85;;;;;;;15.89;53.08;100772.00;4993719;28;20034;-66
2023/01/01 00:41:55;;;;;;;11.65;3.53;;;;;;;15.87;53.10;100763.13;4993864;28;20037;-67
2023/01/01 00:44:20;;;;;;;14.07;3.70;;;;;;;15.86;53.54;100759.56;4993646;28;20487;-67
2023/01/01 00:46:45;;;;;;;9.30;3.45;;;;;;;15.87;53.01;100776.44;4993759;28;20029;-67
2023/01/01 00:49:11;;;;;;;11.27;3.63;;;;;;;15.81;54.00;100772.06;4993713;28;20042;-67
2023/01/01 00:51:36;;;;;;;11.30;3.60;;;;;;;15.79;53.36;100755.22;4993685;28;20034;-67
2023/01/01 00:54:02;;;;;;;10.98;3.72;;;;;;;15.77;53.79;100767.69;4993585;28;20030;-68
2023/01/01 00:56:27;;;;;;;16.42;3.80;;;;;;;15.73;53.86;100758.84;4997288;28;20069;-67
2023/01/01 00:58:53;;;;;;;15.85;3.97;;;;;;;15.72;53.45;100773.06;4997674;28;20030;-67
2023/01/01 01:01:18;;;;;;;12.77;3.20;;;;;;;15.75;53.34;100753.47;4997615;28;20026;-67
2023/01/01 01:03:43;;;;;;;9.88;3.40;;;;;;;15.78;53.06;100777.44;4996251;28;20026;-67
2023/01/01 01:06:11;;;;;;;12.90;3.60;;;;;;;15.78;53.00;100772.97;4997478;28;20026;-67
2023/01/01 01:08:39;;;;;;;14.05;3.38;;;;;;;15.74;52.98;100775.69;4997711;28;20077;-67
2023/01/01 01:11:16;;;;;;;9.68;3.03;;;;;;;15.74;53.31;100779.25;4997287;28;20088;-67
2023/01/01 01:13:44;;;;;;;10.20;3.25;;;;;;;15.76;53.31;100792.56;4997478;28;20026;-67
2023/01/01 01:16:22;;;;;;;10.95;3.42;;;;;;;15.75;54.08;100797.00;4997415;28;20026;-66
2023/01/01 01:18:53;;;;;;;9.15;3.20;;;;;;;15.78;53.46;100772.09;4997406;28;20038;-68
2023/01/01 01:21:20;;;;;;;14.60;3.00;;;;;;;15.76;53.77;100769.47;4997913;28;20061;-67
2023/01/01 01:23:47;;;;;;;9.18;3.00;;;;;;;15.77;53.33;100778.34;4998098;28;20026;-66
2023/01/01 01:26:15;;;;;;;11.63;3.22;;;;;;;15.78;53.82;100774.78;4997031;28;20085;-66
2023/01/01 01:28:42;;;;;;;13.73;3.45;;;;;;;15.71;54.02;100778.38;4997250;28;20433;-67
2023/01/01 01:31:07;;;;;;;7.80;3.03;;;;;;;15.68;54.41;100792.66;4997180;28;20018;-67
2023/01/01 01:33:34;;;;;;;11.38;3.10;;;;;;;15.65;53.90;100790.00;4997169;28;20054;-68
2023/01/01 01:36:00;;;;;;;10.75;3.20;;;;;;;15.58;53.46;100792.72;4997287;28;20035;-68
2023/01/01 01:38:25;;;;;;;10.73;3.20;;;;;;;15.57;53.87;100796.28;4997182;28;20034;-67
2023/01/01 01:40:51;;;;;;;8.48;3.17;;;;;;;15.46;54.21;100799.94;4996828;28;20031;-67
2023/01/01 01:43:23;;;;;;;13.55;3.63;;;;;;;15.46;54.07;100804.38;4996767;28;20030;-67
2023/01/01 01:45:53;;;;;;;14.05;3.00;;;;;;;15.41;53.83;100801.75;4997122;28;20372;-67
2023/01/01 01:48:18;;;;;;;15.38;3.00;;;;;;;15.39;54.19;100787.59;4996830;28;20097;-67
2023/01/01 01:50:47;;;;;;;7.60;2.60;;;;;;;15.36;53.63;100800.91;4996726;28;20488;-66
2023/01/01 01:53:23;;;;;;;9.00;2.83;;;;;;;15.32;54.19;100801.84;4995332;28;20014;-67
2023/01/01 01:55:54;;;;;;;7.35;2.83;;;;;;;15.27;54.07;100812.53;4996721;28;20034;-67
2023/01/01 01:58:21;;;;;;;11.30;3.05;;;;;;;15.24;53.81;100840.97;4996387;28;20050;-68
2023/01/01 02:00:46;;;;;;;11.27;3.17;;;;;;;15.24;54.07;100806.34;4996493;28;20038;-67
2023/01/01 02:03:18;;;;;;;11.02;3.08;;;;;;;15.21;54.35;100841.88;4996589;28;20030;-66
2023/01/01 02:05:45;;;;;;;9.73;2.90;;;;;;;15.22;54.05;100829.47;4996142;28;20541;-67
2023/01/01 02:08:13;;;;;;;9.20;2.85;;;;;;;15.21;54.51;100822.38;4996436;28;20488;-67
2023/01/01 02:10:39;;;;;;;7.72;2.75;;;;;;;15.15;54.87;100844.59;5024403;23;20193;-67
2023/01/01 02:13:04;;;;;;;9.48;2.75;;;;;;;15.12;54.74;100846.41;5016021;28;20482;-67
2023/01/01 02:15:36;;;;;;;7.47;2.85;;;;;;;15.11;54.57;100833.97;5015781;28;20121;-67
2023/01/01 02:18:14;;;;;;;7.47;2.70;;;;;;;15.09;54.63;100828.69;5016142;28;20397;-67
2023/01/01 02:20:43;;;;;;;7.07;2.83;;;;;;;15.07;54.43;100838.44;5015829;28;20105;-67
2023/01/01 02:23:09;;;;;;;13.50;2.80;;;;;;;15.07;54.91;100837.56;5014342;28;20053;-67
2023/01/01 02:25:59;;;;;;;10.32;3.00;;;;;;;15.02;55.04;100814.53;4998084;28;20127;-67
2023/01/01 02:28:43;;;;;;;8.32;2.88;;;;;;;15.00;55.10;100829.63;5015899;28;20068;-67
2023/01/01 02:31:14;;;;;;;8.57;2.97;;;;;;;14.97;54.63;100828.75;5015891;28;20389;-67
2023/01/01 02:33:43;;;;;;;7.35;2.65;;;;;;;14.98;54.85;100833.19;5015900;28;20032;-66
2023/01/01 02:36:12;;;;;;;9.30;3.00;;;;;;;14.97;54.57;100832.31;5015543;28;20030;-67
2023/01/01 02:38:45;;;;;;;13.93;2.97;;;;;;;14.96;54.80;100832.34;5015443;28;20033;-67
2023/01/01 02:41:21;;;;;;;9.30;2.90;;;;;;;14.96;54.92;100835.00;5015662;28;20053;-70
2023/01/01 02:43:47;;;;;;;9.45;2.97;;;;;;;14.96;54.35;100838.53;5015348;28;20479;-67
2023/01/01 02:46:13;;;;;;;7.32;2.40;;;;;;;14.95;54.45;100823.47;5015538;28;20037;-67
2023/01/01 02:48:42;;;;;;;7.75;2.72;;;;;;;14.92;55.11;100839.44;4997720;28;20041;-66
2023/01/01 02:51:49;;;;;;;11.25;3.13;;;;;;;14.92;55.08;100818.16;5015308;28;20036;-66
2023/01/01 02:54:17;;;;;;;7.22;2.95;;;;;;;14.94;54.94;100839.41;4994499;28;20033;-67
2023/01/01 02:57:04;;;;;;;10.48;2.97;;;;;;;14.95;54.86;100846.53;4997458;28;20030;-68
2023/01/01 03:02:45;;;;;;;6.78;2.70;;;;;;;14.92;55.33;100860.72;5000534;28;20544;-67
2023/01/01 03:06:21;;;;;;;7.63;2.53;;;;;;;14.90;55.91;100835.00;5015057;28;20034;-67
2023/01/01 03:08:32;;;;;;;13.85;3.08;;;;;;;14.84;56.49;100859.91;5014685;28;20038;-67
2023/01/01 03:11:06;;;;;;;7.93;2.65;;;;;;;14.81;56.61;100856.38;5014737;28;20168;-67
2023/01/01 03:13:49;;;;;;;9.10;2.70;;;;;;;14.81;56.51;100859.03;5014755;28;20073;-67
2023/01/01 03:16:26;;;;;;;10.50;2.60;;;;;;;14.77;56.44;100856.41;5015017;28;20030;-68
2023/01/01 03:19:10;;;;;;;12.98;2.60;;;;;;;14.79;56.57;100853.72;5014301;28;20382;-67
2023/01/01 03:21:54;;;;;;;9.23;2.90;;;;;;;14.82;56.45;100872.34;5014700;28;20041;-67
2023/01/01 03:24:35;;;;;;;8.48;2.40;;;;;;;14.82;57.08;100866.09;5014663;28;20360;-66
2023/01/01 03:27:05;;;;;;;8.23;2.60;;;;;;;14.79;57.22;100861.72;5014859;28;20133;-67
2023/01/01 03:29:34;;;;;;;6.90;2.67;;;;;;;14.72;57.77;100860.84;4997750;28;20025;-66
2023/01/01 03:32:04;;;;;;;8.45;2.55;;;;;;;14.71;57.27;100867.06;5014460;28;20034;-67
2023/01/01 03:34:38;;;;;;;6.10;2.30;;;;;;;14.70;57.48;100883.94;5014361;28;20450;-67
2023/01/01 03:37:08;;;;;;;7.28;2.50;;;;;;;14.77;57.21;100852.84;5014340;28;20191;-67
2023/01/01 03:39:49;;;;;;;7.10;2.65;;;;;;;14.77;57.83;100860.81;5014165;28;20061;-67
2023/01/01 03:42:27;;;;;;;7.23;2.53;;;;;;;14.72;57.93;100871.50;5014424;28;20034;-67
2023/01/01 03:45:00;;;;;;;9.25;2.58;;;;;;;14.68;58.29;100872.41;4996710;28;20026;-67
2023/01/01 03:47:26;;;;;;;7.22;2.50;;;;;;;14.66;58.08;100865.34;5014493;28;20057;-67
2023/01/01 03:49:52;;;;;;;5.32;2.33;;;;;;;14.68;57.95;100883.03;5014447;28;20402;-67
2023/01/01 03:52:54;;;;;;;4.53;2.13;;;;;;;14.70;57.70;100894.56;5014086;28;20018;-67
2023/01/01 03:55:35;;;;;;;7.57;2.40;;;;;;;14.69;58.46;100894.59;5014077;28;20030;-67
2023/01/01 03:58:19;;;;;;;7.13;2.63;;;;;;;14.69;58.28;100890.16;5014097;28;20040;-67
2023/01/01 04:00:53;;;;;;;8.45;2.53;;;;;;;14.68;58.12;100895.47;5013939;28;20025;-66
2023/01/01 04:03:24;;;;;;;10.00;2.63;;;;;;;14.69;58.75;100889.28;5014251;28;20034;-66
2023/01/01 04:05:49;;;;;;;7.65;2.45;;;;;;;14.64;58.51;100891.91;5013956;28;20076;-67
2023/01/01 04:08:15;;;;;;;7.30;2.60;;;;;;;14.65;58.58;100900.81;5013878;28;20026;-69
2023/01/01 04:10:46;;;;;;;10.02;2.60;;;;;;;14.66;58.91;100916.75;4983167;28;20051;-67
2023/01/01 04:13:11;;;;;;;8.88;2.55;;;;;;;14.64;58.67;100899.03;4974820;28;20058;-67
2023/01/01 04:15:37;;;;;;;7.90;2.65;;;;;;;14.61;59.30;100899.94;4974618;28;20499;-67
2023/01/01 04:18:03;;;;;;;8.68;2.38;;;;;;;14.60;59.61;100915.88;4974547;28;20110;-67
2023/01/01 04:20:29;;;;;;;9.00;2.80;;;;;;;14.58;59.35;100918.56;4974454;28;20023;-67
2023/01/01 04:22:58;;;;;;;7.30;2.50;;;;;;;14.57;59.39;100922.13;4974520;28;20472;-67
2023/01/01 04:25:24;;;;;;;9.00;2.80;;;;;;;14.60;59.40;100914.09;4974554;28;20361;-67
2023/01/01 04:27:50;;;;;;;7.80;2.40;;;;;;;14.57;59.97;100910.59;4974569;28;20086;-67
2023/01/01 04:30:16;;;;;;;7.03;2.50;;;;;;;14.59;59.56;100909.69;4973700;28;20026;-67
2023/01/01 04:32:43;;;;;;;7.82;2.30;;;;;;;14.60;59.72;100911.44;4974785;28;20361;-67
2023/01/01 04:35:11;;;;;;;10.52;2.67;;;;;;;14.53;60.21;100888.44;4974668;28;20053;-68
2023/01/01 04:37:38;;;;;;;6.38;2.50;;;;;;;14.52;60.33;100914.16;4974236;28;20068;-67
2023/01/01 04:40:05;;;;;;;8.95;2.58;;;;;;;14.51;60.58;100912.38;4974500;28;20027;-67
2023/01/01 04:42:30;;;;;;;8.52;2.50;;;;;;;14.47;60.51;100920.34;4974275;28;20030;-68
2023/01/01 04:44:56;;;;;;;8.68;2.63;;;;;;;14.48;60.59;100924.78;4974349;28;20031;-67
2023/01/01 04:47:21;;;;;;;8.55;2.90;;;;;;;14.45;61.10;100930.09;4974355;28;20484;-67
2023/01/01 04:49:47;;;;;;;8.40;2.65;;;;;;;14.43;61.20;100927.47;4974551;28;20035;-67
2023/01/01 04:52:12;;;;;;;7.65;2.50;;;;;;;14.43;61.56;100943.41;4974436;28;20038;-67
2023/01/01 04:54:38;;;;;;;8.63;2.63;;;;;;;14.44;61.86;100929.22;4974098;28;20037;-66
2023/01/01 04:57:03;;;;;;;6.85;2.85;;;;;;;14.40;61.92;100931.91;4974252;28;20054;-67
2023/01/01 04:59:30;;;;;;;8.98;2.60;;;;;;;14.40;62.08;100945.19;4974399;28;20069;-67
2023/01/01 05:01:55;;;;;;;7.97;2.53;;;;;;;14.37;62.36;100939.88;4974143;28;20535;-67
2023/01/01 05:04:21;;;;;;;9.00;2.70;;;;;;;14.37;62.57;100938.09;4974242;28;20022;-68
2023/01/01 05:06:46;;;;;;;7.53;2.28;;;;;;;14.40;62.12;100942.53;4974233;28;20078;-67
2023/01/01 05:09:12;;;;;;;10.52;2.70;;;;;;;14.38;62.31;100955.81;4974102;28;20117;-67
2023/01/01 05:11:37;;;;;;;7.57;2.58;;;;;;;14.31;62.98;100948.78;4987769;28;20054;-66
2023/01/01 05:14:03;;;;;;;7.72;2.50;;;;;;;14.32;63.38;100968.25;4993549;28;20066;-67
2023/01/01 05:16:31;;;;;;;6.28;2.42;;;;;;;14.30;63.28;100954.94;4993554;28;20038;-67
2023/01/01 05:18:57;;;;;;;10.30;2.50;;;;;;;14.26;63.40;100970.06;4993308;28;20464;-68
2023/01/01 05:21:25;;;;;;;14.20;2.85;;;;;;;14.27;63.42;100963.84;4993472;28;20042;-68
2023/01/01 05:23:55;;;;;;;10.13;2.60;;;;;;;14.29;63.23;100974.44;4993143;28;20387;-67
2023/01/01 05:26:22;;;;;;;8.02;2.42;;;;;;;14.23;64.00;100991.31;4993346;28;20480;-67
2023/01/01 05:28:48;;;;;;;8.98;2.50;;;;;;;14.23;64.59;101009.03;4993407;28;20034;-67
2023/01/01 05:31:16;;;;;;;11.80;2.55;;;;;;;14.22;64.16;101015.25;4993442;28;20031;-68
2023/01/01 05:33:42;;;;;;;5.68;2.35;;;;;;;14.20;64.63;101022.31;4993550;28;20267;-67
2023/01/01 05:36:12;;;;;;;7.03;2.75;;;;;;;14.19;64.56;101004.59;4993556;28;20018;-68
2023/01/01 05:38:38;;;;;;;8.70;2.72;;;;;;;14.19;64.45;101012.59;4993636;28;20033;-67
2023/01/01 05:41:09;;;;;;;8.27;2.40;;;;;;;14.22;64.46;101021.44;4994423;28;20391;-68
2023/01/01 05:43:35;;;;;;;7.63;2.53;;;;;;;14.26;64.12;101020.56;4996899;28;20026;-68
2023/01/01 05:46:03;;;;;;;7.93;2.47;;;;;;;14.21;64.53;101011.66;4996960;28;20026;-68
2023/01/01 05:48:29;;;;;;;7.95;2.65;;;;;;;14.22;64.73;101029.41;4997053;28;20026;-67
2023/01/01 05:51:04;;;;;;;12.43;2.70;;;;;;;14.21;64.95;101029.41;4997010;28;20033;-67
2023/01/01 05:53:30;;;;;;;9.20;2.60;;;;;;;14.22;64.88;101031.19;4996788;28;20113;-67
2023/01/01 05:55:55;;;;;;;13.80;2.70;;;;;;;14.18;65.19;101043.59;4996962;28;20101;-68
2023/01/01 05:58:21;;;;;;;12.05;2.80;;;;;;;14.14;65.31;101044.47;4996523;28;20026;-68
2023/01/01 06:00:46;;;;;;;11.73;2.60;;;;;;;14.13;65.53;101045.38;4996646;28;20025;-67
2023/01/01 06:03:12;;;;;;;8.93;2.70;;;;;;;14.11;65.62;101059.53;4996545;28;20073;-67
2023/01/01 06:05:37;;;;;;;6.43;2.33;;;;;;;14.10;65.73;101071.06;4996456;28;20041;-66
2023/01/01 06:08:02;;;;;;;10.50;2.70;;;;;;;14.07;65.79;101065.72;4996397;28;20479;-68
2023/01/01 06:10:28;;;;;;;8.98;2.70;;;;;;;14.08;66.03;101062.19;4996249;28;20403;-68
2023/01/01 06:12:59;;;;;;;11.32;2.83;;;;;;;14.04;66.28;101072.81;4996124;28;20073;-66
2023/01/01 06:15:26;;;;;;;8.48;2.70;;;;;;;14.03;66.48;101070.16;4996286;28;20065;-68
2023/01/01 06:17:51;;;;;;;12.10;2.85;;;;;;;14.00;66.83;101078.13;4996367;28;20033;-68
2023/01/01 06:20:17;;;;;;;10.95;2.78;;;;;;;13.96;67.00;101076.34;4978790;28;20030;-67
2023/01/01 06:22:42;;;;;;;12.93;2.78;;;;;;;13.94;67.04;101089.63;4996107;28;20424;-68
2023/01/01 06:25:09;;;;;;;11.68;3.00;;;;;;;13.94;66.66;101094.06;4995945;28;20038;-67
2023/01/01 06:27:35;;;;;;;10.65;2.88;;;;;;;13.96;66.51;101089.63;4996087;28;20443;-67
2023/01/01 06:30:01;;;;;;;10.95;3.05;;;;;;;13.92;67.77;101099.41;4996263;28;20034;-67
2023/01/01 06:32:26;;;;;;;10.25;2.55;;;;;;;13.92;68.42;101123.31;4996005;28;20027;-68
2023/01/01 06:34:52;;;;;;;9.35;3.10;;;;;;;13.86;70.37;101133.03;4995977;28;20034;-67
2023/01/01 06:37:17;;;;;;;9.35;2.65;;;;;;;13.73;73.90;101148.91;4996170;28;20034;-68
2023/01/01 06:39:44;;;;;;;9.15;2.95;;;;;;;13.60;75.20;101162.16;4995763;28;20168;-67
2023/01/01 06:42:09;;;;;;;8.32;2.92;;;;;;;13.40;76.59;101165.63;4995811;28;20587;-68
2023/01/01 06:44:35;;;;;;;8.05;3.17;;;;;;;13.27;76.91;101167.38;4995291;28;20129;-68
2023/01/01 06:47:00;;;;;;;7.90;2.95;;;;;;;13.16;77.26;101165.50;4995683;28;20034;-67
2023/01/01 06:49:26;;;;;;;8.18;3.20;;;;;;;13.03;77.58;101160.09;4995671;28;20070;-68
2023/01/01 06:51:51;;;;;;;8.65;3.22;;;;;;;12.95;78.10;101156.53;4995198;28;20146;-66
2023/01/01 06:54:16;;;;;;;8.18;3.22;;;;;;;12.81;79.36;101171.47;4994831;28;20506;-67
2023/01/01 06:56:42;;;;;;;13.50;3.40;;;;;;;12.74;80.25;101173.19;4995786;28;20065;-68
2023/01/01 06:59:07;;;;;;;8.95;3.35;;;;;;;12.67;80.84;101184.59;4995433;28;20033;-67
2023/01/01 07:01:34;;;;;;;9.75;3.53;;;;;;;12.60;81.51;101189.88;4995634;28;20121;-68
2023/01/01 07:04:05;;;;;;;11.13;4.00;;;;;;;12.56;82.21;101206.63;4995371;28;20516;-68
2023/01/01 07:06:31;;;;;;;9.02;3.28;;;;;;;12.52;82.89;101203.94;4995315;28;20085;-68
2023/01/01 07:08:57;;;;;;;9.38;3.35;;;;;;;12.47;83.39;101197.72;4995546;28;20022;-66
2023/01/01 07:11:24;;;;;;;10.32;3.30;;;;;;;12.42;84.56;101190.59;4994971;28;20478;-67
2023/01/01 07:13:50;;;;;;;8.40;3.28;;;;;;;12.36;85.05;101203.78;4995485;28;20044;-67
2023/01/01 07:16:15;;;;;;;10.57;3.50;;;;;;;12.33;85.60;101209.06;4995440;28;20489;-67
2023/01/01 07:18:41;;;;;;;8.85;3.15;;;;;;;12.26;86.25;101213.44;4995053;28;20380;-66
2023/01/01 07:21:20;;;;;;;8.60;2.90;;;;;;;12.24;86.36;101209.84;4994916;28;20026;-66
2023/01/01 07:23:46;;;;;;;8.50;3.00;;;;;;;12.14;87.30;101216.84;4977736;28;20034;-67
2023/01/01 07:26:11;;;;;;;10.85;3.30;;;;;;;12.10;87.74;101212.38;4994977;28;20031;-66
2023/01/01 07:28:36;;;;;;;7.57;3.00;;;;;;;12.08;87.32;101221.19;4994770;28;20121;-67
2023/01/01 07:31:02;;;;;;;8.68;2.50;;;;;;;12.06;85.89;101230.88;4994756;28;20061;-67
2023/01/01 07:33:27;;;;;;;6.90;2.50;;;;;;;12.07;83.69;101236.16;4994791;28;20145;-67
2023/01/01 07:35:52;;;;;;;8.25;2.60;;;;;;;12.06;82.89;101223.81;5040230;23;20043;-71
2023/01/01 07:38:18;;;;;;;8.48;2.28;;;;;;;12.04;82.91;101225.56;4994767;28;20034;-71
2023/01/01 07:40:43;;;;;;;8.60;2.20;;;;;;;12.00;84.19;101237.00;4994602;28;20107;-71
2023/01/01 07:43:11;;;;;;;6.38;2.05;;;;;;;11.97;84.22;101231.66;4994526;28;20033;-71
2023/01/01 07:45:36;;;;;;;10.15;2.25;;;;;;;11.99;83.81;101248.44;4994675;28;20482;-70
2023/01/01 07:48:02;;;;;;;4.95;2.20;;;;;;;11.97;84.10;101253.72;4994596;28;20526;-70
2023/01/01 07:50:30;;;;;;;6.70;2.15;;;;;;;11.96;84.00;101251.06;4994612;28;20068;-70
2023/01/01 07:52:56;;;;;;;6.25;2.10;;;;;;;11.92;85.07;101259.84;4994567;28;20058;-70
2023/01/01 07:55:21;;;;;;;9.27;2.70;;;;;;;11.90;85.62;101265.09;4994209;28;20060;-70
2023/01/01 07:57:47;;;;;;;7.75;2.40;;;;;;;11.84;86.33;101262.41;4994405;28;20542;-70
2023/01/01 08:00:15;;;;;;;8.60;2.40;;;;;;;11.86;87.15;101273.91;4993154;28;20018;-71
2023/01/01 08:02:41;;;;;;;7.85;2.20;;;;;;;11.80;87.77;101281.72;4994284;28;20031;-70
2023/01/01 08:05:07;;;;;;;10.38;2.20;;;;;;;11.79;88.17;101298.50;4992945;28;20030;-71
2023/01/01 08:07:32;;;;;;;5.60;2.33;;;;;;;11.75;88.65;101308.16;4994241;28;20030;-71
2023/01/01 08:09:58;;;;;;;5.22;2.25;;;;;;;11.76;89.37;101317.88;4994290;28;20022;-72
2023/01/01 08:12:24;;;;;;;8.68;2.30;;;;;;;11.73;90.01;101319.56;4994229;28;20031;-72
2023/01/01 08:14:49;;;;;;;5.90;2.28;;;;;;;11.73;90.16;101344.31;4994066;28;20037;-72
2023/01/01 08:17:15;;;;;;;8.23;2.25;;;;;;;11.69;90.62;101331.91;4994196;28;20109;-72
2023/01/01 08:19:40;;;;;;;8.55;2.42;;;;;;;11.66;91.11;101342.44;4993804;28;20406;-73
2023/01/01 08:22:05;;;;;;;9.85;2.40;;;;;;;11.64;91.80;101338.88;4993926;28;20018;-72
2023/01/01 08:24:31;;;;;;;6.57;2.40;;;;;;;11.61;92.47;101341.50;4992715;28;20030;-72
2023/01/01 08:26:56;;;;;;;6.00;2.28;;;;;;;11.54;92.55;101336.97;4993998;28;20041;-72
2023/01/01 08:29:24;;;;;;;7.18;2.58;;;;;;;11.53;93.05;101330.78;4994243;28;20113;-72
2023/01/01 08:31:49;;;;;;;6.53;2.35;;;;;;;11.53;93.82;101319.31;4993800;28;20039;-71
2023/01/01 08:34:15;;;;;;;6.63;2.40;;;;;;;11.56;93.51;101336.97;4993700;28;20072;-71
2023/01/01 08:36:40;;;;;;;8.50;2.70;;;;;;;11.54;93.83;101344.91;4993461;28;20065;-70
2023/01/01 08:39:06;;;;;;;7.63;2.50;;;;;;;11.46;93.67;101334.19;4993483;28;20030;-70
2023/01/01 08:41:32;;;;;;;8.98;2.63;;;;;;;11.48;94.54;101332.50;4993695;28;20031;-71
2023/01/01 08:43:57;;;;;;;6.60;2.63;;;;;;;11.49;94.60;101349.25;4993675;28;20526;-70
2023/01/01 08:46:23;;;;;;;6.88;2.60;;;;;;;11.50;94.70;101362.50;4993227;28;20023;-70
2023/01/01 08:48:48;;;;;;;10.52;2.75;;;;;;;11.50;94.70;101367.78;4993573;28;20038;-70
2023/01/01 08:51:14;;;;;;;9.30;2.72;;;;;;;11.46;95.33;101365.97;4993350;28;20435;-71
2023/01/01 08:53:39;;;;;;;9.68;2.75;;;;;;;11.45;95.41;101371.25;4993101;28;20058;-70
2023/01/01 08:56:07;;;;;;;10.13;2.58;;;;;;;11.44;96.23;101382.69;4992990;28;20026;-70
2023/01/01 08:58:35;;;;;;;10.15;2.72;;;;;;;11.42;96.73;101376.47;4993327;28;20077;-71
2023/01/01 09:01:00;;;;;;;12.45;2.88;;;;;;;11.44;96.64;101377.41;4993060;28;20026;-70
2023/01/01 09:03:26;;;;;;;9.68;2.90;;;;;;;11.44;96.61;101386.22;4993251;28;20490;-70
2023/01/01 09:05:52;;;;;;;9.75;2.67;;;;;;;11.50;96.51;101378.38;4993054;28;20102;-70
2023/01/01 09:08:18;;;;;;;15.50;2.97;;;;;;;11.44;97.16;101365.06;4992983;28;20030;-69
2023/01/01 09:10:43;;;;;;;13.43;3.20;;;;;;;11.43;97.41;101362.38;4993099;28;20037;-70
2023/01/01 09:13:10;;;;;;;12.60;3.10;;;;;;;11.42;97.87;101364.13;4992845;28;20033;-69
2023/01/01 09:15:36;;;;;;;7.32;2.67;;;;;;;11.38;97.84;101362.31;4993518;28;20475;-69
2023/01/01 09:18:01;;;;;;;11.40;3.00;;;;;;;11.43;98.21;101379.13;4996846;28;20018;-70
2023/01/01 09:20:27;;;;;;;13.18;3.30;;;;;;;11.43;99.27;101386.19;4997019;28;20054;-69
2023/01/01 09:22:52;;;;;;;11.20;2.80;;;;;;;11.44;99.25;101380.94;4996682;28;20026;-69
2023/01/01 09:25:18;;;;;;;9.57;3.03;;;;;;;11.41;99.59;101374.69;4996556;28;20027;-69
2023/01/01 09:27:43;;;;;;;10.40;3.03;;;;;;;11.40;99.41;101365.00;4996760;28;20038;-68
2023/01/01 09:30:09;;;;;;;10.63;2.90;;;;;;;11.36;99.90;101376.38;4996754;28;20454;-69
2023/01/01 09:32:35;;;;;;;7.82;2.67;;;;;;;11.33;100.00;101371.03;4996831;28;20026;-69
2023/01/01 09:35:00;;;;;;;7.75;2.65;;;;;;;11.35;100.00;101378.16;4996642;28;20376;-68
2023/01/01 09:37:26;;;;;;;9.40;3.42;;;;;;;11.36;100.00;101379.03;4996113;28;20059;-67
2023/01/01 09:39:51;;;;;;;7.32;2.70;;;;;;;11.41;100.00;101383.53;4996364;28;20077;-69
2023/01/01 09:42:42;;;;;;;6.97;2.70;;;;;;;11.46;100.00;101410.06;4978920;28;20030;-69
2023/01/01 09:45:22;;;;;;;11.75;3.30;;;;;;;11.53;100.00;101399.59;4978624;28;20037;-68
2023/01/01 09:48:14;;;;;;;8.73;3.53;;;;;;;11.62;100.00;101396.22;4996464;28;20035;-68
2023/01/01 09:50:41;;;;;;;;;;;;;;;11.69;97.86;101405.13;4994076;28;20486;-68
2023/01/01 09:53:16;;;;;;;10.82;3.40;;;;;;;11.67;98.92;101394.50;4996056;28;19953;-69
2023/01/01 09:55:55;;;;;;;9.95;3.53;;;;;;;11.61;99.12;101397.09;4996274;28;20069;-68
2023/01/01 09:58:24;;;;;;;11.90;3.95;;;;;;;11.61;99.04;101398.84;4996269;28;20078;-68
2023/01/01 10:00:53;;;;;;;12.20;3.72;;;;;;;11.50;99.33;101394.25;4995894;28;20026;-68
2023/01/01 10:03:44;;;;;;;9.52;3.38;;;;;;;11.48;99.74;101392.47;4996103;28;20034;-68
2023/01/01 10:06:15;;;;;;;9.93;3.30;;;;;;;11.48;99.95;101384.53;4994566;28;20031;-68
2023/01/01 10:08:59;;;;;;;9.27;3.43;;;;;;;11.50;99.69;101393.38;4996080;28;20031;-68
2023/01/01 10:11:37;;;;;;;14.38;3.67;;;;;;;11.50;99.00;101388.06;4995864;28;20387;-68
2023/01/01 10:14:15;;;;;;;13.15;3.28;;;;;;;11.43;99.32;101383.53;4996120;28;20022;-68
2023/01/01 10:16:45;;;;;;;10.02;3.70;;;;;;;11.43;99.96;101389.72;4995616;28;20037;-68
2023/01/01 10:19:21;;;;;;;8.35;3.25;;;;;;;11.45;99.34;101387.13;4995631;28;20030;-68
2023/01/01 10:21:50;;;;;;;12.93;3.17;;;;;;;11.44;99.76;101382.69;4995639;28;20054;-68
2023/01/01 10:24:15;;;;;;;12.15;3.38;;;;;;;11.48;98.71;101390.72;4995121;28;20023;-68
2023/01/01 10:26:41;;;;;;;11.98;3.90;;;;;;;11.48;98.59;101381.88;4995676;28;20037;-68
2023/01/01 10:29:21;;;;;;;9.38;3.70;;;;;;;11.50;98.40;101380.13;4995274;28;20429;-68
2023/01/01 10:31:47;;;;;;;12.30;3.75;;;;;;;11.56;98.22;101384.63;4995689;28;20078;-68
2023/01/01 10:34:27;;;;;;;10.32;3.58;;;;;;;11.62;97.58;101397.97;4995181;28;20022;-68
2023/01/01 10:36:54;;;;;;;9.85;3.33;;;;;;;11.68;96.69;101387.47;4995350;28;20057;-68
2023/01/01 10:39:20;;;;;;;8.48;3.47;;;;;;;11.78;96.07;101392.03;4995064;28;20031;-68
2023/01/01 10:41:46;;;;;;;8.73;3.28;;;;;;;11.84;96.19;101393.91;4995249;28;20099;-68
2023/01/01 10:44:14;;;;;;;20.73;3.83;;;;;;;11.91;95.33;101388.72;4995028;28;20034;-68
2023/01/01 10:46:50;;;;;;;8.20;3.17;;;;;;;11.97;94.51;101391.44;4995125;28;20018;-70
2023/01/01 10:49:16;;;;;;;8.88;3.40;;;;;;;12.05;94.34;101385.38;4995042;28;20047;-69
2023/01/01 10:51:47;;;;;;;10.77;3.55;;;;;;;12.11;93.08;101388.09;4994993;28;20480;-69
2023/01/01 10:54:28;;;;;;;11.77;3.78;;;;;;;12.23;92.64;101391.78;4984803;28;20035;-68
2023/01/01 10:56:54;;;;;;;14.32;3.78;;;;;;;12.14;92.13;101366.94;4975376;28;20031;-68
2023/01/01 10:59:31;;;;;;;14.18;3.72;;;;;;;12.38;90.68;101392.88;4958012;28;20457;-68
2023/01/01 11:02:20;;;;;;;10.88;3.50;;;;;;;12.49;89.93;101397.41;4975238;28;20172;-68
2023/01/01 11:04:46;;;;;;;13.15;3.20;;;;;;;12.59;89.39;101401.09;4957976;28;20022;-67
2023/01/01 11:07:33;;;;;;;12.98;3.70;;;;;;;12.68;89.18;101392.34;4975248;28;20046;-68
2023/01/01 11:10:01;;;;;;;14.90;3.83;;;;;;;12.76;88.19;101396.84;4975199;28;20027;-67
2023/01/01 11:12:33;;;;;;;11.68;3.90;;;;;;;12.76;88.17;101396.84;4974930;28;20500;-68
2023/01/01 11:14:59;;;;;;;14.68;3.80;;;;;;;12.83;86.86;101415.47;4975136;28;20109;-67
2023/01/01 11:17:29;;;;;;;11.13;3.60;;;;;;;12.85;87.01;101411.06;4975214;28;20038;-67
2023/01/01 11:19:57;;;;;;;12.82;3.28;;;;;;;12.86;86.29;101416.41;4975055;28;20049;-67
2023/01/01 11:22:47;;;;;;;15.13;3.90;;;;;;;12.88;85.46;101416.41;4974825;28;20023;-67
2023/01/01 11:25:24;;;;;;;11.25;3.47;;;;;;;12.93;86.31;101431.50;4975051;28;20366;-67
2023/01/01 11:27:50;;;;;;;8.82;3.22;;;;;;;12.93;85.03;101433.25;4974624;28;20133;-68
2023/01/01 11:30:27;;;;;;;13.43;3.10;;;;;;;12.99;85.04;101426.25;4975436;28;20023;-67
2023/01/01 11:33:03;;;;;;;9.40;3.17;;;;;;;13.01;84.38;101415.66;4975934;28;20109;-67
2023/01/01 11:35:47;;;;;;;10.18;3.40;;;;;;;13.05;85.07;101414.81;4976072;28;20027;-67